Time;durP1;ratioP1;P1;durP2;ratioP2;P2;SDS_P1;SDS_P2;PMS_P1;PMS_P2;Temp;Humidity;BMP_temperature;BMP_pressure;BME280_temperature;BME280_humidity;BME280_pressure;Samples;Min_cycle;Max_cycle;Signal;HPM_P1;HPM_P2
2021/07/15 01:36:42;;;;;;;0.10;0.00;;;16.60;80.20;;;;;;5080767;27;20039;-62
2021/07/15 01:39:10;;;;;;;0.00;0.00;;;16.60;79.30;;;;;;5081044;27;20044;-61
2021/07/15 01:41:48;;;;;;;0.73;0.00;;;16.60;79.30;;;;;;5081960;28;20499;-61
2021/07/15 01:44:27;;;;;;;0.88;0.00;;;16.50;80.00;;;;;;5085603;27;20038;-61
2021/07/15 01:46:53;;;;;;;0.00;0.00;;;16.50;80.30;;;;;;5082461;27;20043;-61
2021/07/15 01:49:20;;;;;;;2.75;0.10;;;16.50;79.70;;;;;;5087309;28;20066;-62
2021/07/15 01:51:46;;;;;;;0.00;0.00;;;16.50;79.80;;;;;;5074902;28;20035;-61
2021/07/15 01:54:13;;;;;;;0.05;0.00;;;16.50;80.00;;;;;;5081122;27;20453;-61
2021/07/15 01:56:41;;;;;;;0.00;0.00;;;16.40;80.00;;;;;;5080514;27;20040;-61
2021/07/15 01:59:10;;;;;;;1.15;0.00;;;16.40;80.30;;;;;;5081420;28;20427;-61
2021/07/15 02:01:37;;;;;;;0.00;0.00;;;16.50;80.50;;;;;;5079692;28;20043;-61
2021/07/15 02:04:05;;;;;;;1.50;0.00;;;16.50;80.40;;;;;;5075396;27;20043;-62
2021/07/15 02:06:31;;;;;;;0.00;0.00;;;16.50;80.30;;;;;;5077504;27;20095;-62
2021/07/15 02:09:03;;;;;;;0.00;0.00;;;16.50;80.30;;;;;;5076942;28;20161;-61
2021/07/15 02:11:33;;;;;;;0.40;0.00;;;16.40;80.30;;;;;;5079792;27;20085;-61
2021/07/15 02:14:05;;;;;;;0.20;0.00;;;16.40;80.40;;;;;;5081125;28;20035;-61
2021/07/15 02:16:32;;;;;;;0.00;0.00;;;16.40;80.80;;;;;;5083664;27;20053;-62
2021/07/15 02:19:00;;;;;;;0.00;0.00;;;16.40;80.60;;;;;;5080454;27;20067;-61
2021/07/15 02:21:28;;;;;;;0.65;0.00;;;16.40;80.60;;;;;;5079299;27;20032;-61
2021/07/15 02:23:55;;;;;;;1.20;0.00;;;16.40;80.70;;;;;;5082310;27;20040;-62
2021/07/15 02:26:22;;;;;;;0.05;0.00;;;16.30;80.60;;;;;;5081694;28;20036;-61
2021/07/15 02:28:47;;;;;;;0.65;0.00;;;16.30;80.50;;;;;;5086971;28;20108;-62
2021/07/15 02:31:15;;;;;;;0.00;0.00;;;16.30;80.80;;;;;;5087348;27;20119;-62
2021/07/15 02:33:48;;;;;;;1.45;0.03;;;16.30;81.00;;;;;;5080994;28;20024;-62
2021/07/15 02:36:16;;;;;;;0.57;0.00;;;16.30;81.30;;;;;;5098279;27;20039;-61
2021/07/15 02:38:43;;;;;;;0.00;0.00;;;16.30;81.10;;;;;;5078589;27;20562;-62
2021/07/15 02:41:09;;;;;;;0.13;0.00;;;16.30;81.10;;;;;;5078380;28;22592;-62
2021/07/15 02:43:35;;;;;;;0.30;0.00;;;16.30;81.00;;;;;;5080926;27;20111;-60
2021/07/15 02:46:00;;;;;;;0.00;0.00;;;16.30;81.00;;;;;;5076294;28;20068;-62
2021/07/15 02:48:26;;;;;;;0.00;0.00;;;16.30;80.80;;;;;;5082768;27;20062;-62
2021/07/15 02:50:52;;;;;;;0.20;0.00;;;16.30;80.80;;;;;;5081234;27;20028;-62
2021/07/15 02:53:19;;;;;;;0.22;0.00;;;16.30;80.70;;;;;;5079257;28;20093;-62
2021/07/15 02:55:50;;;;;;;0.00;0.00;;;16.30;80.80;;;;;;5078766;27;20187;-62
2021/07/15 02:58:40;;;;;;;0.13;0.00;;;16.30;80.90;;;;;;5096279;27;20090;-61
2021/07/15 03:01:10;;;;;;;0.57;0.00;;;16.30;81.70;;;;;;5077399;28;20030;-62
2021/07/15 03:03:58;;;;;;;0.05;0.00;;;16.30;80.80;;;;;;5084231;27;20039;-62
2021/07/15 03:06:39;;;;;;;0.20;0.00;;;16.30;81.70;;;;;;5077153;27;20024;-62
2021/07/15 03:09:11;;;;;;;0.00;0.00;;;16.30;81.30;;;;;;5083175;28;20040;-62
2021/07/15 03:11:44;;;;;;;0.75;0.00;;;16.30;81.70;;;;;;5078747;28;20028;-62
2021/07/15 03:14:10;;;;;;;1.35;0.82;;;16.30;80.80;;;;;;5078232;27;20028;-62
2021/07/15 03:16:39;;;;;;;0.63;0.28;;;16.30;80.80;;;;;;5079309;27;20036;-61
2021/07/15 03:19:06;;;;;;;45.72;30.92;;;16.30;80.80;;;;;;5081958;27;20040;-60
2021/07/15 03:21:33;;;;;;;3.15;2.75;;;16.20;80.80;;;;;;5077621;28;20040;-62
2021/07/15 03:24:01;;;;;;;0.30;0.30;;;16.20;80.80;;;;;;5073638;28;20071;-62
2021/07/15 03:26:27;;;;;;;0.55;0.55;;;16.20;80.90;;;;;;5074483;27;20777;-61
2021/07/15 03:28:54;;;;;;;1.02;0.90;;;16.20;80.90;;;;;;5080982;28;20039;-62
2021/07/15 03:31:22;;;;;;;2.42;2.22;;;16.20;81.00;;;;;;5076277;27;20064;-62
2021/07/15 03:33:50;;;;;;;2.25;2.05;;;16.20;81.20;;;;;;5083373;27;20032;-62
2021/07/15 03:36:17;;;;;;;0.95;0.28;;;16.20;81.20;;;;;;5084308;27;20036;-62
2021/07/15 03:38:45;;;;;;;0.77;0.75;;;16.20;81.10;;;;;;5083149;28;21587;-62
2021/07/15 03:41:12;;;;;;;1.00;0.85;;;16.20;81.10;;;;;;5077506;28;20067;-61
2021/07/15 03:43:41;;;;;;;0.20;0.17;;;16.20;81.20;;;;;;5082791;28;20600;-62
2021/07/15 03:46:07;;;;;;;0.63;0.00;;;16.20;81.30;;;;;;5084253;28;20039;-62
2021/07/15 03:48:34;;;;;;;0.10;0.10;;;16.20;81.10;;;;;;5082640;27;20414;-62
2021/07/15 03:51:09;;;;;;;0.47;0.20;;;16.20;81.20;;;;;;5078979;28;20033;-62
2021/07/15 03:53:37;;;;;;;0.30;0.30;;;16.10;81.50;;;;;;5083666;28;20032;-61
2021/07/15 03:56:03;;;;;;;0.10;0.00;;;16.20;81.50;;;;;;5085945;27;20067;-61
2021/07/15 03:58:32;;;;;;;1.10;1.00;;;16.20;81.50;;;;;;5076740;27;20130;-62
2021/07/15 04:01:03;;;;;;;0.93;0.93;;;16.10;81.80;;;;;;5088762;28;20115;-62
2021/07/15 04:03:32;;;;;;;0.68;0.50;;;16.10;82.90;;;;;;5088540;27;20092;-62
2021/07/15 04:06:00;;;;;;;2.80;2.33;;;16.10;81.80;;;;;;5082478;28;20395;-61
2021/07/15 04:08:28;;;;;;;4.22;3.83;;;16.10;81.90;;;;;;5085410;27;20040;-62
2021/07/15 04:10:59;;;;;;;0.73;0.70;;;16.10;82.20;;;;;;5082526;27;20044;-62
2021/07/15 04:13:27;;;;;;;1.27;0.30;;;16.10;82.40;;;;;;5084983;28;20495;-62
2021/07/15 04:15:55;;;;;;;1.10;1.10;;;16.10;82.40;;;;;;5084760;27;22423;-62
2021/07/15 04:18:38;;;;;;;1.20;1.10;;;16.10;82.60;;;;;;5090370;28;20033;-61
2021/07/15 04:21:05;;;;;;;1.15;0.80;;;16.10;83.40;;;;;;5086355;28;20028;-61
2021/07/15 04:23:32;;;;;;;0.40;0.40;;;16.20;82.60;;;;;;5088887;27;20050;-61
2021/07/15 04:25:58;;;;;;;1.08;0.10;;;16.20;82.60;;;;;;5080810;28;20032;-60
2021/07/15 04:28:25;;;;;;;0.35;0.10;;;16.20;82.60;;;;;;5087728;27;20058;-62
2021/07/15 04:31:13;;;;;;;0.80;0.10;;;16.20;82.70;;;;;;5081427;28;20522;-62
2021/07/15 04:33:39;;;;;;;1.88;0.20;;;16.20;82.90;;;;;;5056744;28;20040;-62
2021/07/15 04:36:06;;;;;;;0.55;0.13;;;16.20;82.60;;;;;;5085781;27;20119;-62
2021/07/15 04:38:33;;;;;;;1.98;0.10;;;16.20;82.70;;;;;;5090689;27;20036;-61
2021/07/15 04:40:59;;;;;;;0.47;0.10;;;16.20;82.70;;;;;;5087469;28;20694;-62
2021/07/15 04:43:27;;;;;;;0.17;0.10;;;16.30;82.80;;;;;;5089602;27;20456;-61
2021/07/15 04:45:54;;;;;;;2.15;0.10;;;16.30;82.90;;;;;;5088706;28;20032;-61
2021/07/15 04:48:20;;;;;;;0.10;0.00;;;16.30;82.90;;;;;;5089693;27;20040;-62
2021/07/15 04:50:48;;;;;;;0.03;0.03;;;16.30;82.90;;;;;;5087579;27;20040;-61
2021/07/15 04:53:16;;;;;;;0.68;0.10;;;16.30;82.90;;;;;;5084857;28;20434;-61
2021/07/15 04:55:43;;;;;;;0.38;0.00;;;16.30;83.10;;;;;;5085066;27;20032;-62
2021/07/15 04:58:09;;;;;;;0.50;0.10;;;16.30;82.90;;;;;;5087326;28;20492;-62
2021/07/15 05:00:37;;;;;;;0.63;0.00;;;16.30;82.90;;;;;;5088289;27;20411;-61
2021/07/15 05:03:17;;;;;;;0.05;0.00;;;16.30;83.10;;;;;;5086898;27;20537;-62
2021/07/15 05:05:43;;;;;;;0.00;0.00;;;16.30;83.70;;;;;;5085120;28;20020;-61
2021/07/15 05:08:09;;;;;;;0.08;0.00;;;16.30;83.10;;;;;;5095828;27;20405;-61
2021/07/15 05:10:34;;;;;;;0.10;0.00;;;16.30;82.90;;;;;;5084002;28;20503;-61
2021/07/15 05:13:01;;;;;;;1.17;0.00;;;16.30;82.60;;;;;;5086088;28;20433;-61
2021/07/15 05:15:27;;;;;;;0.00;0.00;;;16.30;82.70;;;;;;5086487;27;20042;-61
2021/07/15 05:17:52;;;;;;;0.20;0.00;;;16.20;82.70;;;;;;5089925;28;20028;-61
2021/07/15 05:20:18;;;;;;;0.15;0.00;;;16.20;82.80;;;;;;5089137;28;20040;-61
2021/07/15 05:22:44;;;;;;;0.00;0.00;;;16.20;82.70;;;;;;5088114;27;20070;-61
2021/07/15 05:25:10;;;;;;;0.00;0.00;;;16.20;82.70;;;;;;5079866;28;20139;-62
2021/07/15 05:27:36;;;;;;;0.45;0.00;;;16.20;82.70;;;;;;5088200;27;20040;-62
2021/07/15 05:30:02;;;;;;;0.00;0.00;;;16.10;82.90;;;;;;5088364;28;20105;-61
2021/07/15 05:32:28;;;;;;;0.13;0.00;;;16.10;82.90;;;;;;5088784;27;20507;-62
2021/07/15 05:34:54;;;;;;;0.85;0.10;;;16.10;83.00;;;;;;5092778;27;20077;-62
2021/07/15 05:37:19;;;;;;;0.13;0.10;;;16.10;83.30;;;;;;5089482;28;20028;-62
2021/07/15 05:39:45;;;;;;;1.17;0.00;;;16.10;83.30;;;;;;5087881;27;20066;-61
2021/07/15 05:42:12;;;;;;;0.00;0.00;;;16.10;83.30;;;;;;5084960;28;20028;-59
2021/07/15 05:44:38;;;;;;;0.00;0.00;;;16.10;83.50;;;;;;5082249;28;20309;-61
2021/07/15 05:47:06;;;;;;;0.00;0.00;;;16.10;83.60;;;;;;5088694;28;20040;-62
2021/07/15 05:49:31;;;;;;;0.10;0.00;;;16.10;83.70;;;;;;5103298;27;20495;-62
2021/07/15 05:51:57;;;;;;;1.10;0.00;;;16.10;83.80;;;;;;5086133;27;20043;-62
2021/07/15 05:54:25;;;;;;;0.38;0.10;;;16.20;83.80;;;;;;5088917;27;20070;-63
2021/07/15 05:56:51;;;;;;;0.10;0.00;;;16.20;83.70;;;;;;5103559;27;20028;-61
2021/07/15 05:59:17;;;;;;;0.00;0.00;;;16.20;83.80;;;;;;5088059;27;20042;-61
2021/07/15 06:01:42;;;;;;;0.00;0.00;;;16.20;83.80;;;;;;5085947;28;20040;-62
2021/07/15 06:04:08;;;;;;;0.82;0.10;;;16.30;84.00;;;;;;5087772;27;20036;-61
2021/07/15 06:06:33;;;;;;;0.17;0.00;;;16.30;83.80;;;;;;5079316;27;20132;-62
2021/07/15 06:08:59;;;;;;;0.10;0.05;;;16.30;83.80;;;;;;5088293;28;20032;-62
2021/07/15 06:11:25;;;;;;;0.17;0.10;;;16.30;83.60;;;;;;5086721;27;20522;-62
2021/07/15 06:13:50;;;;;;;0.22;0.10;;;16.30;83.80;;;;;;5085392;28;20040;-61
2021/07/15 06:16:16;;;;;;;0.08;0.08;;;16.30;83.90;;;;;;5087833;27;20106;-60
2021/07/15 06:18:41;;;;;;;0.40;0.10;;;16.30;84.10;;;;;;5087160;27;20035;-61
2021/07/15 06:21:07;;;;;;;0.35;0.10;;;16.30;84.00;;;;;;5087196;28;20028;-63
2021/07/15 06:23:33;;;;;;;0.38;0.00;;;16.30;84.10;;;;;;5086467;27;20119;-61
2021/07/15 06:26:00;;;;;;;1.30;0.10;;;16.40;84.30;;;;;;5087048;28;20107;-62
2021/07/15 06:28:26;;;;;;;1.20;0.00;;;16.40;85.20;;;;;;5088196;27;20085;-60
2021/07/15 06:30:52;;;;;;;0.10;0.00;;;16.40;84.50;;;;;;5078908;28;20046;-61
2021/07/15 06:33:18;;;;;;;0.25;0.00;;;16.50;84.50;;;;;;5088493;28;20032;-62
2021/07/15 06:35:47;;;;;;;0.50;0.10;;;16.50;84.30;;;;;;5086658;27;20028;-61
2021/07/15 06:38:13;;;;;;;0.30;0.05;;;16.50;84.00;;;;;;5089403;28;20495;-61
2021/07/15 06:40:39;;;;;;;0.00;0.00;;;16.50;84.00;;;;;;5087521;27;20043;-61
2021/07/15 06:43:05;;;;;;;1.35;0.00;;;16.50;83.90;;;;;;5087371;28;20054;-60
2021/07/15 06:45:30;;;;;;;0.10;0.00;;;16.50;84.00;;;;;;5085681;28;20039;-61
2021/07/15 06:47:56;;;;;;;0.10;0.00;;;16.50;84.00;;;;;;5085975;27;20036;-62
2021/07/15 06:50:22;;;;;;;0.25;0.10;;;16.50;84.10;;;;;;5085682;28;20143;-62
2021/07/15 06:52:48;;;;;;;0.35;0.00;;;16.60;84.30;;;;;;5086593;28;20032;-61
2021/07/15 06:55:14;;;;;;;0.55;0.10;;;16.50;84.10;;;;;;5087063;27;20066;-61
2021/07/15 06:57:39;;;;;;;0.30;0.08;;;16.50;84.10;;;;;;5087804;28;20028;-60
2021/07/15 07:00:09;;;;;;;0.17;0.03;;;16.60;84.10;;;;;;5083794;27;20036;-61
2021/07/15 07:02:39;;;;;;;1.17;0.03;;;16.60;84.30;;;;;;5080704;27;20047;-60
2021/07/15 07:05:06;;;;;;;0.20;0.05;;;16.60;84.60;;;;;;5102154;27;20032;-61
2021/07/15 07:07:31;;;;;;;0.22;0.10;;;16.60;84.30;;;;;;5083834;28;20032;-61
2021/07/15 07:09:57;;;;;;;0.00;0.00;;;16.60;84.30;;;;;;5088068;28;20569;-61
2021/07/15 07:12:23;;;;;;;0.10;0.00;;;16.60;84.30;;;;;;5084919;27;20040;-61
2021/07/15 07:14:48;;;;;;;0.00;0.00;;;16.60;84.10;;;;;;5085947;27;20043;-60
2021/07/15 07:17:14;;;;;;;0.43;0.10;;;16.60;84.30;;;;;;5085355;28;20050;-61
2021/07/15 07:19:39;;;;;;;0.05;0.00;;;16.60;84.30;;;;;;5091575;27;20090;-60
2021/07/15 07:22:05;;;;;;;0.00;0.00;;;16.60;84.30;;;;;;5087083;28;20059;-60
2021/07/15 07:24:31;;;;;;;0.75;0.03;;;16.60;84.30;;;;;;5090448;27;20028;-60
2021/07/15 07:26:56;;;;;;;0.20;0.00;;;16.60;84.30;;;;;;5091616;27;20089;-59
2021/07/15 07:29:22;;;;;;;1.60;0.10;;;16.60;84.50;;;;;;5090565;28;20135;-59
2021/07/15 07:31:47;;;;;;;0.00;0.00;;;16.60;84.60;;;;;;5087571;27;20058;-61
2021/07/15 07:34:13;;;;;;;0.70;0.00;;;16.70;84.80;;;;;;5092160;28;20089;-59
2021/07/15 07:36:39;;;;;;;0.00;0.00;;;16.70;84.80;;;;;;5084671;27;20035;-62
2021/07/15 07:39:05;;;;;;;0.00;0.00;;;16.80;85.50;;;;;;5089679;27;20032;-60
2021/07/15 07:41:31;;;;;;;0.00;0.00;;;16.80;84.60;;;;;;5090896;28;20119;-61
2021/07/15 07:43:58;;;;;;;0.00;0.00;;;16.80;84.50;;;;;;5089557;28;20044;-62
2021/07/15 07:46:23;;;;;;;0.00;0.00;;;16.90;84.60;;;;;;5091200;27;20089;-62
2021/07/15 07:48:49;;;;;;;1.17;0.00;;;16.90;84.60;;;;;;5091324;28;20387;-61
2021/07/15 07:51:15;;;;;;;0.00;0.00;;;16.90;85.30;;;;;;5089164;27;20469;-59
2021/07/15 07:53:41;;;;;;;0.45;0.20;;;17.00;84.60;;;;;;5089544;28;20028;-61
2021/07/15 07:56:06;;;;;;;0.08;0.00;;;17.00;84.50;;;;;;5091135;27;20407;-60
2021/07/15 07:58:32;;;;;;;0.00;0.00;;;17.00;84.50;;;;;;5088687;27;20036;-62
2021/07/15 08:00:57;;;;;;;0.00;0.00;;;17.10;84.60;;;;;;5088826;28;20040;-62
2021/07/15 08:03:23;;;;;;;0.63;0.10;;;17.10;84.50;;;;;;5086540;28;20081;-62
2021/07/15 08:05:49;;;;;;;0.05;0.05;;;17.10;84.40;;;;;;5091823;28;20036;-61
2021/07/15 08:08:17;;;;;;;0.00;0.00;;;17.20;84.30;;;;;;5083942;28;20030;-61
2021/07/15 08:10:43;;;;;;;0.10;0.10;;;17.20;84.30;;;;;;5085234;27;20787;-61
2021/07/15 08:13:09;;;;;;;0.45;0.10;;;17.20;84.20;;;;;;5090486;28;20043;-61
2021/07/15 08:15:35;;;;;;;0.00;0.00;;;17.30;84.30;;;;;;5090145;27;20683;-61
2021/07/15 08:18:01;;;;;;;0.20;0.10;;;17.30;84.20;;;;;;5088824;28;20028;-63
2021/07/15 08:20:27;;;;;;;0.08;0.08;;;17.30;84.00;;;;;;5085332;28;20304;-62
2021/07/15 08:22:52;;;;;;;0.00;0.00;;;17.30;84.00;;;;;;5089845;27;20138;-61
2021/07/15 08:25:22;;;;;;;0.10;0.00;;;17.40;84.20;;;;;;5096494;27;20028;-61
2021/07/15 08:27:49;;;;;;;0.73;0.00;;;17.40;84.20;;;;;;5090258;27;20060;-62
2021/07/15 08:30:15;;;;;;;0.43;0.10;;;17.50;84.20;;;;;;5089850;28;20111;-63
2021/07/15 08:32:41;;;;;;;0.55;0.10;;;17.50;84.30;;;;;;5090519;27;20056;-61
2021/07/15 08:35:07;;;;;;;0.08;0.08;;;17.50;84.30;;;;;;5087863;28;20059;-62
2021/07/15 08:37:33;;;;;;;0.13;0.05;;;17.60;84.30;;;;;;5085419;28;20036;-62
2021/07/15 08:39:59;;;;;;;0.08;0.08;;;17.60;84.20;;;;;;5088599;27;20042;-62
2021/07/15 08:42:26;;;;;;;0.20;0.00;;;17.70;84.40;;;;;;5088871;27;20036;-62
2021/07/15 08:44:53;;;;;;;0.10;0.10;;;17.80;84.20;;;;;;5090559;28;20097;-62
2021/07/15 08:47:19;;;;;;;0.40;0.00;;;17.80;83.90;;;;;;5083398;28;20553;-62
2021/07/15 08:49:45;;;;;;;0.00;0.00;;;17.90;84.00;;;;;;5086250;28;20048;-62
2021/07/15 08:52:14;;;;;;;0.40;0.00;;;18.00;83.90;;;;;;5091527;27;20089;-62
2021/07/15 08:57:15;;;;;;;0.20;0.00;;;18.00;83.10;;;;;;5089658;28;20046;-62
2021/07/15 08:59:41;;;;;;;0.00;0.00;;;18.10;83.20;;;;;;5090624;27;20263;-61
2021/07/15 09:02:11;;;;;;;0.03;0.00;;;18.10;83.10;;;;;;5088739;28;20044;-62
2021/07/15 09:04:37;;;;;;;0.10;0.00;;;18.20;83.20;;;;;;5094205;27;20101;-62
2021/07/15 09:07:02;;;;;;;0.30;0.00;;;18.30;83.30;;;;;;5087875;27;20289;-62
2021/07/15 09:09:28;;;;;;;0.00;0.00;;;18.30;83.20;;;;;;5089848;28;20063;-62
2021/07/15 09:11:54;;;;;;;0.00;0.00;;;18.40;83.20;;;;;;5087840;27;20040;-62
2021/07/15 09:14:22;;;;;;;0.10;0.00;;;18.40;83.00;;;;;;5090145;28;20040;-63
2021/07/15 09:17:01;;;;;;;0.00;0.00;;;18.50;83.30;;;;;;5087535;28;20582;-62
2021/07/15 09:19:28;;;;;;;1.05;0.00;;;18.70;82.90;;;;;;5086944;28;20044;-62
2021/07/15 09:22:06;;;;;;;0.05;0.00;;;18.70;82.30;;;;;;5088050;28;20040;-63
2021/07/15 09:24:40;;;;;;;0.00;0.00;;;18.80;82.00;;;;;;5103867;27;20085;-62
2021/07/15 09:27:24;;;;;;;0.00;0.00;;;18.90;81.90;;;;;;5090402;27;20032;-62
2021/07/15 09:30:10;;;;;;;0.00;0.00;;;19.00;81.70;;;;;;5105589;27;20100;-62
2021/07/15 09:33:00;;;;;;;0.17;0.00;;;19.10;80.80;;;;;;5085810;27;20100;-63
2021/07/15 09:35:34;;;;;;;0.00;0.00;;;19.10;80.50;;;;;;5096110;27;20037;-63
2021/07/15 09:38:10;;;;;;;0.10;0.10;;;19.20;80.60;;;;;;5088743;28;20645;-62
2021/07/15 09:40:44;;;;;;;0.00;0.00;;;19.20;80.30;;;;;;5088903;27;20028;-62
2021/07/15 09:43:19;;;;;;;0.00;0.00;;;19.30;80.40;;;;;;5090417;27;20400;-62
2021/07/15 09:45:46;;;;;;;0.10;0.00;;;19.30;80.30;;;;;;5080628;27;20050;-63
2021/07/15 09:48:25;;;;;;;0.00;0.00;;;19.40;80.10;;;;;;5090117;27;20032;-64
2021/07/15 09:50:57;;;;;;;0.10;0.00;;;19.40;79.90;;;;;;5085372;28;20387;-62
2021/07/15 09:53:28;;;;;;;0.20;0.05;;;19.40;79.80;;;;;;5088160;28;20522;-63
2021/07/15 09:56:09;;;;;;;0.00;0.00;;;19.50;79.40;;;;;;5091239;27;20055;-63
2021/07/15 09:58:37;;;;;;;0.00;0.00;;;19.50;79.20;;;;;;5086383;27;20048;-62
2021/07/15 10:01:11;;;;;;;0.10;0.10;;;19.60;79.30;;;;;;5088221;28;20194;-62
2021/07/15 10:03:43;;;;;;;0.10;0.08;;;19.60;78.60;;;;;;5087528;27;20159;-63
2021/07/15 10:06:10;;;;;;;0.10;0.10;;;19.70;78.90;;;;;;5085948;28;20055;-62
2021/07/15 10:08:37;;;;;;;0.10;0.05;;;19.70;78.90;;;;;;5086186;28;20032;-62
2021/07/15 10:11:28;;;;;;;0.10;0.10;;;19.80;78.50;;;;;;5085362;27;20032;-63
2021/07/15 10:14:04;;;;;;;0.00;0.00;;;19.90;78.00;;;;;;5103213;27;20126;-63
2021/07/15 10:16:31;;;;;;;0.25;0.10;;;19.90;78.20;;;;;;5087327;27;20082;-63
2021/07/15 10:18:57;;;;;;;0.00;0.00;;;19.90;78.20;;;;;;5090146;27;20250;-63
2021/07/15 10:21:28;;;;;;;0.10;0.10;;;20.00;78.30;;;;;;5085225;28;21447;-62
2021/07/15 10:23:54;;;;;;;0.10;0.10;;;20.10;78.00;;;;;;5087620;28;20040;-62
2021/07/15 10:26:20;;;;;;;0.00;0.00;;;20.10;77.50;;;;;;5095899;27;20453;-62
2021/07/15 10:28:49;;;;;;;0.43;0.10;;;20.20;76.80;;;;;;5089023;27;20057;-62
2021/07/15 10:31:16;;;;;;;0.82;0.10;;;20.20;76.30;;;;;;5086282;27;20035;-62
2021/07/15 10:33:43;;;;;;;0.10;0.10;;;20.20;76.60;;;;;;5089042;28;20035;-62
2021/07/15 10:36:09;;;;;;;0.40;0.10;;;20.30;76.80;;;;;;5088698;27;20032;-62
2021/07/15 10:38:38;;;;;;;0.10;0.10;;;20.40;76.60;;;;;;5100205;27;20032;-62
2021/07/15 10:41:05;;;;;;;0.10;0.10;;;20.40;76.20;;;;;;5087095;27;20151;-62
2021/07/15 10:43:33;;;;;;;0.10;0.10;;;20.50;76.20;;;;;;5087832;27;20324;-62
2021/07/15 10:46:01;;;;;;;0.10;0.10;;;20.60;76.10;;;;;;5080574;27;20024;-63
2021/07/15 10:48:28;;;;;;;0.10;0.10;;;20.60;75.80;;;;;;5089089;27;20384;-62
2021/07/15 10:50:53;;;;;;;0.30;0.10;;;20.70;75.80;;;;;;5086968;27;20107;-62
2021/07/15 10:53:20;;;;;;;0.17;0.08;;;20.70;75.80;;;;;;5082985;28;20477;-63
2021/07/15 10:55:46;;;;;;;0.10;0.10;;;20.80;75.60;;;;;;5088969;27;20042;-62
2021/07/15 10:58:12;;;;;;;0.13;0.10;;;20.80;75.40;;;;;;5088344;28;20495;-63
2021/07/15 11:00:49;;;;;;;0.10;0.10;;;20.90;75.60;;;;;;5086440;27;20062;-63
2021/07/15 11:03:23;;;;;;;0.40;0.20;;;21.00;73.50;;;;;;5087910;27;20442;-63
2021/07/15 11:05:50;;;;;;;0.10;0.10;;;21.10;74.10;;;;;;5089009;28;20028;-63
2021/07/15 11:08:17;;;;;;;0.43;0.10;;;21.10;73.90;;;;;;5085304;27;20027;-63
2021/07/15 11:10:43;;;;;;;0.10;0.10;;;21.20;74.20;;;;;;5082360;28;20075;-62
2021/07/15 11:13:10;;;;;;;0.15;0.10;;;21.30;73.70;;;;;;5086126;28;20084;-62
2021/07/15 11:15:55;;;;;;;1.30;0.20;;;21.30;73.10;;;;;;5086944;28;20029;-62
2021/07/15 11:18:55;;;;;;;;;;;;;;;;;;;;;
2021/07/15 11:21:26;;;;;;;1.00;0.20;;;21.40;73.00;;;;;;5083426;28;19920;-62
2021/07/15 11:24:12;;;;;;;;;;;21.50;72.30;;;;;;5084927;27;20039;-63
2021/07/15 11:26:41;;;;;;;0.60;0.30;;;21.60;72.80;;;;;;5087253;27;19919;-62
2021/07/15 11:29:08;;;;;;;0.10;0.10;;;21.60;72.60;;;;;;5087299;28;20530;-62
2021/07/15 11:31:54;;;;;;;0.10;0.10;;;21.60;72.80;;;;;;5085993;28;20047;-62
2021/07/15 11:34:35;;;;;;;0.10;0.10;;;21.60;71.80;;;;;;5090679;28;20098;-63
2021/07/15 11:37:26;;;;;;;0.15;0.10;;;21.70;72.10;;;;;;5088561;28;20047;-63
2021/07/15 11:39:56;;;;;;;2.20;0.20;;;21.70;73.00;;;;;;5078704;28;20035;-63
2021/07/15 11:42:26;;;;;;;0.55;0.20;;;21.80;73.00;;;;;;5086290;27;20040;-63
2021/07/15 11:45:12;;;;;;;0.40;0.22;;;21.90;73.20;;;;;;5085351;28;20079;-63
2021/07/15 11:47:53;;;;;;;0.10;0.10;;;22.00;72.00;;;;;;5088964;27;20089;-62
2021/07/15 11:50:32;;;;;;;0.52;0.20;;;22.10;71.10;;;;;;5085431;28;20028;-63
2021/07/15 11:53:17;;;;;;;0.10;0.10;;;22.20;71.10;;;;;;5085352;28;20028;-63
2021/07/15 11:55:49;;;;;;;0.20;0.20;;;22.20;69.70;;;;;;5090479;27;20070;-63
2021/07/15 11:58:39;;;;;;;0.15;0.10;;;22.20;70.90;;;;;;5089101;28;20036;-63
2021/07/15 12:01:16;;;;;;;1.17;0.20;;;22.30;70.40;;;;;;5080062;27;20020;-63
2021/07/15 12:04:05;;;;;;;0.10;0.10;;;22.30;69.30;;;;;;5087755;27;20040;-64
2021/07/15 12:06:33;;;;;;;0.10;0.10;;;22.30;69.30;;;;;;5091847;27;20053;-63
2021/07/15 12:09:02;;;;;;;0.10;0.10;;;22.30;69.30;;;;;;5086112;27;20032;-63
2021/07/15 12:11:28;;;;;;;0.20;0.20;;;22.40;68.80;;;;;;5085988;27;20032;-64
2021/07/15 12:13:53;;;;;;;0.10;0.10;;;22.30;69.00;;;;;;5090197;28;20453;-63
2021/07/15 12:16:23;;;;;;;1.83;0.30;;;22.30;69.30;;;;;;5090419;27;20388;-63
2021/07/15 12:18:51;;;;;;;1.40;0.40;;;22.30;70.20;;;;;;5091388;27;20353;-62
2021/07/15 12:21:18;;;;;;;0.88;0.30;;;22.20;70.20;;;;;;5083998;28;20032;-63
2021/07/15 12:23:46;;;;;;;1.35;0.45;;;22.00;70.60;;;;;;5086497;28;20118;-62
2021/07/15 12:26:19;;;;;;;5.47;0.73;;;21.80;70.70;;;;;;5090592;28;20082;-62
2021/07/15 12:28:46;;;;;;;5.13;0.80;;;21.60;72.10;;;;;;5091334;27;20156;-63
2021/07/15 12:31:14;;;;;;;1.38;0.40;;;21.50;72.50;;;;;;5091579;27;20028;-62
2021/07/15 12:33:40;;;;;;;2.80;0.63;;;21.30;72.40;;;;;;5089001;27;20024;-63
2021/07/15 12:36:17;;;;;;;2.20;0.50;;;21.20;72.60;;;;;;5088764;27;20029;-61
2021/07/15 12:38:48;;;;;;;0.50;0.40;;;21.10;73.00;;;;;;5088804;27;20040;-63
2021/07/15 12:41:23;;;;;;;1.20;0.60;;;21.00;73.00;;;;;;5102494;27;20058;-62
2021/07/15 12:43:51;;;;;;;1.42;0.65;;;20.80;73.70;;;;;;5089997;27;20036;-63
2021/07/15 12:46:28;;;;;;;0.88;0.50;;;20.70;73.60;;;;;;5091534;28;20068;-62
2021/07/15 12:48:55;;;;;;;1.33;0.40;;;20.60;73.90;;;;;;5091966;28;20120;-62
2021/07/15 12:51:25;;;;;;;1.85;0.40;;;20.50;74.10;;;;;;5089305;27;20032;-61
2021/07/15 12:53:52;;;;;;;0.43;0.30;;;20.30;74.90;;;;;;5088851;28;20391;-62
2021/07/15 12:56:27;;;;;;;0.30;0.20;;;20.30;75.20;;;;;;5083435;28;20411;-62
2021/07/15 12:58:59;;;;;;;;;;;20.20;76.00;;;;;;5091194;27;20379;-61
2021/07/15 13:01:25;;;;;;;0.10;0.10;;;20.20;75.70;;;;;;5089000;28;20008;-61
2021/07/15 13:04:05;;;;;;;0.10;0.10;;;20.20;75.30;;;;;;5087570;27;20091;-62
2021/07/15 13:06:31;;;;;;;0.17;0.10;;;20.10;76.80;;;;;;5087833;27;20127;-63
2021/07/15 13:09:07;;;;;;;1.05;0.25;;;20.00;76.60;;;;;;5089627;28;20032;-62
2021/07/15 13:14:18;;;;;;;2.80;0.40;;;19.90;77.50;;;;;;5089769;28;20043;-63
2021/07/15 13:16:46;;;;;;;0.30;0.30;;;19.90;77.40;;;;;;5088007;27;20032;-61
2021/07/15 13:19:17;;;;;;;0.45;0.45;;;20.00;77.70;;;;;;5087455;27;20070;-61
2021/07/15 13:21:43;;;;;;;0.38;0.38;;;19.90;78.00;;;;;;5088888;28;20036;-62
2021/07/15 13:24:10;;;;;;;0.40;0.40;;;19.90;77.90;;;;;;5087853;27;20097;-62
2021/07/15 13:26:51;;;;;;;0.50;0.30;;;19.80;78.20;;;;;;5089285;27;20486;-62
2021/07/15 13:29:17;;;;;;;0.25;0.22;;;19.90;79.20;;;;;;5088828;28;20028;-62
2021/07/15 13:31:43;;;;;;;0.25;0.25;;;19.80;78.70;;;;;;5088820;27;20036;-63
2021/07/15 13:34:10;;;;;;;2.00;1.73;;;19.80;79.00;;;;;;5085329;28;20028;-62
2021/07/15 13:36:58;;;;;;;0.98;0.70;;;19.70;79.20;;;;;;5089279;27;20419;-62
2021/07/15 13:39:42;;;;;;;0.30;0.30;;;19.70;80.30;;;;;;5088880;27;20040;-62
2021/07/15 13:42:10;;;;;;;0.60;0.50;;;19.80;80.70;;;;;;5087595;28;20028;-62
2021/07/15 13:44:38;;;;;;;0.75;0.40;;;19.80;80.10;;;;;;5094308;27;20090;-60
2021/07/15 13:47:07;;;;;;;0.52;0.30;;;19.80;80.10;;;;;;5089540;27;20036;-63
2021/07/15 13:49:37;;;;;;;0.20;0.20;;;19.80;79.30;;;;;;5087637;28;20119;-60
2021/07/15 13:52:11;;;;;;;0.20;0.20;;;19.80;79.40;;;;;;5087062;27;20056;-62
2021/07/15 13:54:39;;;;;;;0.20;0.20;;;19.80;79.40;;;;;;5086253;27;20036;-62
2021/07/15 13:57:11;;;;;;;0.20;0.20;;;19.80;79.20;;;;;;5086426;28;20028;-61
2021/07/15 13:59:38;;;;;;;0.22;0.22;;;19.80;79.50;;;;;;5087216;27;20032;-63
2021/07/15 14:02:15;;;;;;;0.70;0.70;;;19.70;79.40;;;;;;5086014;27;20043;-61
2021/07/15 14:04:45;;;;;;;0.40;0.40;;;19.70;79.50;;;;;;5082868;28;20032;-62
2021/07/15 14:07:14;;;;;;;1.30;0.30;;;19.60;78.90;;;;;;5087292;27;20190;-62
2021/07/15 14:09:41;;;;;;;2.38;0.30;;;19.60;79.10;;;;;;5089048;28;20101;-62
2021/07/15 14:12:09;;;;;;;0.30;0.30;;;19.60;79.00;;;;;;5080800;28;20036;-62
2021/07/15 14:14:53;;;;;;;0.45;0.40;;;19.60;79.20;;;;;;5081590;27;20042;-62
2021/07/15 14:17:24;;;;;;;3.92;1.95;;;19.60;79.40;;;;;;5087600;28;20028;-62
2021/07/15 14:19:55;;;;;;;6.70;4.72;;;19.60;79.30;;;;;;5086071;27;20043;-62
2021/07/15 14:22:22;;;;;;;13.20;8.60;;;19.60;79.60;;;;;;5083726;28;20032;-62
2021/07/15 14:24:48;;;;;;;3.13;2.67;;;19.60;79.90;;;;;;5079407;28;20032;-62
2021/07/15 14:27:16;;;;;;;6.70;6.10;;;19.70;79.70;;;;;;5083812;27;20039;-62
2021/07/15 14:29:42;;;;;;;5.97;5.45;;;19.70;79.40;;;;;;5083875;28;20119;-62
2021/07/15 14:32:07;;;;;;;0.70;0.70;;;19.80;79.70;;;;;;5081066;27;20036;-63
2021/07/15 14:34:33;;;;;;;0.63;0.63;;;19.90;79.90;;;;;;5079339;28;20040;-62
2021/07/15 14:36:59;;;;;;;2.80;2.60;;;19.90;79.60;;;;;;5084714;28;20028;-63
2021/07/15 14:39:26;;;;;;;0.60;0.60;;;19.90;79.70;;;;;;5088962;27;20471;-63